createdAt,value
2022-10-31T00:00:08.924Z,101313.13
2022-10-31T00:02:38.702Z,101307.66
2022-10-31T00:05:07.488Z,101312.00
2022-10-31T00:07:36.892Z,101310.09
2022-10-31T00:10:05.543Z,101301.19
2022-10-31T00:12:33.877Z,101303.84
2022-10-31T00:15:02.221Z,101303.97
2022-10-31T00:17:30.435Z,101304.03
2022-10-31T00:20:00.406Z,101302.31
2022-10-31T00:22:28.656Z,101306.44
2022-10-31T00:24:56.854Z,101308.19
2022-10-31T00:27:25.256Z,101301.84
2022-10-31T00:29:53.422Z,101307.41
2022-10-31T00:32:21.588Z,101307.16
2022-10-31T00:34:49.986Z,101310.34
2022-10-31T00:37:19.583Z,101310.09
2022-10-31T00:39:50.083Z,101313.38
2022-10-31T00:42:18.293Z,101311.28
2022-10-31T00:44:46.468Z,101313.38
2022-10-31T00:47:14.605Z,101303.16
2022-10-31T00:49:42.747Z,101301.03
2022-10-31T00:52:11.077Z,101294.03
2022-10-31T00:54:40.649Z,101292.44
2022-10-31T00:57:08.803Z,101301.41
2022-10-31T00:59:36.830Z,101301.56
2022-10-31T01:02:05.157Z,101304.19
2022-10-31T01:04:33.513Z,101305.06
2022-10-31T01:07:01.436Z,101294.75
2022-10-31T01:09:29.346Z,101302.19
2022-10-31T01:11:58.609Z,101292.59
2022-10-31T01:14:26.661Z,101279.31
2022-10-31T01:16:54.594Z,101296.16
2022-10-31T01:19:22.496Z,101284.41
2022-10-31T01:21:50.432Z,101286.00
2022-10-31T01:24:18.321Z,101281.47
2022-10-31T01:26:46.206Z,101286.72
2022-10-31T01:29:15.461Z,101285.84
2022-10-31T01:31:43.325Z,101279.88
2022-10-31T01:34:12.352Z,101278.25
2022-10-31T01:36:41.559Z,101274.00
2022-10-31T01:39:12.759Z,101281.28
2022-10-31T01:41:42.008Z,101274.47
2022-10-31T01:44:43.188Z,101269.16
2022-10-31T01:47:15.287Z,101282.66
2022-10-31T01:49:45.305Z,101280.25
2022-10-31T01:52:15.017Z,101283.72
2022-10-31T01:54:44.534Z,101289.16
2022-10-31T01:57:12.772Z,101294.53
2022-10-31T01:59:42.235Z,101295.41
2022-10-31T02:02:10.240Z,101293.50
2022-10-31T02:04:39.617Z,101289.06
2022-10-31T02:07:10.459Z,101279.22
2022-10-31T02:09:38.392Z,101269.53
2022-10-31T02:12:06.746Z,101266.06
2022-10-31T02:14:34.639Z,101267.97
2022-10-31T02:17:02.516Z,101268.84
2022-10-31T02:19:42.719Z,101266.25
2022-10-31T02:22:12.122Z,101263.41
2022-10-31T02:24:46.043Z,101249.22
2022-10-31T02:27:19.189Z,101253.59
2022-10-31T02:30:05.998Z,101262.63
2022-10-31T02:32:49.484Z,101255.09
2022-10-31T02:35:23.750Z,101247.56
2022-10-31T02:37:53.198Z,101244.78
2022-10-31T02:40:24.011Z,101238.59
2022-10-31T02:42:53.593Z,101233.38
2022-10-31T02:45:23.789Z,101233.66
2022-10-31T02:47:53.022Z,101232.09
2022-10-31T02:50:23.206Z,101226.91
2022-10-31T02:52:52.654Z,101221.81
2022-10-31T02:55:59.262Z,101235.72
2022-10-31T02:58:29.106Z,101240.81
2022-10-31T03:01:12.815Z,101234.94
2022-10-31T03:03:47.087Z,101229.19
2022-10-31T03:06:16.490Z,101229.69
2022-10-31T03:08:45.914Z,101238.19
2022-10-31T03:11:13.776Z,101232.28
2022-10-31T03:13:43.327Z,101231.31
2022-10-31T03:16:13.081Z,101227.50
2022-10-31T03:18:44.895Z,101222.91
2022-10-31T03:21:14.712Z,101226.28
2022-10-31T03:23:42.783Z,101222.66
2022-10-31T03:26:11.386Z,101222.53
2022-10-31T03:28:41.807Z,101205.56
2022-10-31T03:31:09.709Z,101213.34
2022-10-31T03:33:38.186Z,101214.97
2022-10-31T03:36:08.402Z,101206.06
2022-10-31T03:38:36.331Z,101224.28
2022-10-31T03:41:04.622Z,101214.31
2022-10-31T03:43:34.520Z,101204.75
2022-10-31T03:46:02.433Z,101215.91
2022-10-31T03:48:30.358Z,101211.22
2022-10-31T03:51:01.471Z,101200.84
2022-10-31T03:53:33.342Z,101203.06
2022-10-31T03:56:03.179Z,101208.44
2022-10-31T03:58:33.443Z,101206.72
2022-10-31T04:01:01.427Z,101201.34
2022-10-31T04:03:30.633Z,101195.31
2022-10-31T04:06:00.572Z,101194.16
2022-10-31T04:08:30.451Z,101195.88
2022-10-31T04:10:58.825Z,101183.41
2022-10-31T04:13:27.851Z,101180.84
2022-10-31T04:15:56.390Z,101181.78
2022-10-31T04:18:24.723Z,101174.94
2022-10-31T04:21:01.901Z,101176.09
2022-10-31T04:23:31.201Z,101182.78
2022-10-31T04:25:59.041Z,101177.59
2022-10-31T04:28:26.941Z,101173.22
2022-10-31T04:30:55.079Z,101169.75
2022-10-31T04:33:23.012Z,101159.31
2022-10-31T04:35:50.893Z,101165.50
2022-10-31T04:38:18.802Z,101179.03
2022-10-31T04:40:48.421Z,101175.31
2022-10-31T04:43:16.318Z,101170.59
2022-10-31T04:45:44.193Z,101168.59
2022-10-31T04:48:12.075Z,101166.78
2022-10-31T04:50:39.978Z,101166.53
2022-10-31T04:53:07.802Z,101165.53
2022-10-31T04:55:35.660Z,101162.84
2022-10-31T04:58:05.353Z,101162.38
2022-10-31T05:00:33.750Z,101171.75
2022-10-31T05:03:01.935Z,101167.81
2022-10-31T05:05:31.260Z,101154.88
2022-10-31T05:07:59.158Z,101156.84
2022-10-31T05:10:27.963Z,101156.75
2022-10-31T05:12:56.698Z,101142.69
2022-10-31T05:15:27.044Z,101153.53
2022-10-31T05:17:55.265Z,101151.53
2022-10-31T05:20:24.452Z,101140.81
2022-10-31T05:22:53.734Z,101144.06
2022-10-31T05:25:23.162Z,101136.00
2022-10-31T05:27:51.663Z,101129.59
2022-10-31T05:30:21.144Z,101140.16
2022-10-31T05:32:51.186Z,101130.75
2022-10-31T05:35:19.913Z,101139.38
2022-10-31T05:37:47.830Z,101143.00
2022-10-31T05:40:16.585Z,101140.44
2022-10-31T05:42:44.776Z,101122.97
2022-10-31T05:45:13.761Z,101134.19
2022-10-31T05:47:41.619Z,101135.94
2022-10-31T05:50:11.590Z,101134.94
2022-10-31T05:52:39.465Z,101138.41
2022-10-31T05:55:07.960Z,101134.78
2022-10-31T05:57:35.923Z,101121.09
2022-10-31T06:00:04.086Z,101125.56
2022-10-31T06:02:35.373Z,101124.63
2022-10-31T06:05:03.434Z,101121.19
2022-10-31T06:07:36.239Z,101113.22
2022-10-31T06:10:04.524Z,101104.41
2022-10-31T06:12:32.457Z,101106.13
2022-10-31T06:15:00.303Z,101103.34
2022-10-31T06:17:28.286Z,101099.91
2022-10-31T06:19:56.790Z,101106.31
2022-10-31T06:22:24.734Z,101108.06
2022-10-31T06:24:54.113Z,101110.63
2022-10-31T06:27:22.149Z,101105.44
2022-10-31T06:29:52.810Z,101095.47
2022-10-31T06:32:21.023Z,101093.09
2022-10-31T06:34:49.982Z,101074.97
2022-10-31T06:37:17.894Z,101113.41
2022-10-31T06:39:45.777Z,101106.31
2022-10-31T06:42:15.029Z,101109.75
2022-10-31T06:44:42.897Z,101107.19
2022-10-31T06:47:10.818Z,101108.13
2022-10-31T06:49:38.676Z,101092.41
2022-10-31T06:52:07.109Z,101106.44
2022-10-31T06:54:34.949Z,101103.63
2022-10-31T06:57:02.839Z,101103.47
2022-10-31T06:59:32.146Z,101097.03
2022-10-31T07:02:00.097Z,101099.50
2022-10-31T07:04:28.112Z,101097.81
2022-10-31T07:06:56.032Z,101088.78
2022-10-31T07:09:24.026Z,101088.72
2022-10-31T07:11:53.914Z,101090.53
2022-10-31T07:14:21.794Z,101083.63
2022-10-31T07:16:52.362Z,101093.50
2022-10-31T07:19:20.280Z,101092.63
2022-10-31T07:21:48.195Z,101094.44
2022-10-31T07:24:16.270Z,101081.13
2022-10-31T07:26:46.937Z,101082.06
2022-10-31T07:29:15.044Z,101094.66
2022-10-31T07:31:43.026Z,101065.28
2022-10-31T07:34:12.323Z,101096.56
2022-10-31T07:36:40.207Z,101093.09
2022-10-31T07:39:08.158Z,101094.94
2022-10-31T07:41:36.071Z,101089.75
2022-10-31T07:44:03.986Z,101087.06
2022-10-31T07:46:31.932Z,101075.84
2022-10-31T07:48:59.810Z,101089.84
2022-10-31T07:51:29.166Z,101094.22
2022-10-31T07:53:57.103Z,101093.28
2022-10-31T07:56:24.992Z,101096.63
2022-10-31T07:58:52.869Z,101094.72
2022-10-31T08:01:21.006Z,101091.75
2022-10-31T08:03:48.992Z,101085.34
2022-10-31T08:06:16.864Z,101088.59
2022-10-31T08:08:46.163Z,101085.06
2022-10-31T08:11:14.068Z,101081.97
2022-10-31T08:13:43.804Z,101076.59
2022-10-31T08:16:11.671Z,101059.09
2022-10-31T08:18:39.585Z,101077.22
2022-10-31T08:21:07.609Z,101076.94
2022-10-31T08:23:35.504Z,101076.53
2022-10-31T08:26:07.060Z,101077.13
2022-10-31T08:28:34.975Z,101071.44
2022-10-31T08:31:03.039Z,101070.28
2022-10-31T08:33:30.931Z,101073.66
2022-10-31T08:35:59.964Z,101060.22
2022-10-31T08:38:27.939Z,101077.56
2022-10-31T08:40:55.870Z,101078.03
2022-10-31T08:43:25.144Z,101074.81
2022-10-31T08:45:55.385Z,101069.72
2022-10-31T08:48:23.279Z,101069.31
2022-10-31T08:50:51.181Z,101053.75
2022-10-31T08:53:19.697Z,101047.31
2022-10-31T08:55:48.328Z,101053.34
2022-10-31T08:58:17.507Z,101043.38
2022-10-31T09:00:46.873Z,101044.03
2022-10-31T09:03:15.566Z,101045.53
2022-10-31T09:05:43.553Z,101047.06
2022-10-31T09:08:16.031Z,101036.25
2022-10-31T09:10:44.787Z,101033.44
2022-10-31T09:13:13.549Z,101015.03
2022-10-31T09:15:42.484Z,101018.28
2022-10-31T09:18:11.914Z,101004.16
2022-10-31T09:20:40.234Z,101015.59
2022-10-31T09:23:09.130Z,101004.94
2022-10-31T09:25:37.135Z,101000.56
2022-10-31T09:28:06.328Z,100992.38
2022-10-31T09:30:35.204Z,100992.25
2022-10-31T09:33:03.721Z,100988.63
2022-10-31T09:35:33.026Z,100983.88
2022-10-31T09:38:02.212Z,100972.59
2022-10-31T09:40:33.489Z,100981.00
2022-10-31T09:43:04.902Z,100974.63
2022-10-31T09:45:35.376Z,100965.00
2022-10-31T09:48:19.737Z,100968.00
2022-10-31T09:50:52.240Z,100965.09
2022-10-31T09:53:25.001Z,100962.19
2022-10-31T09:55:52.848Z,100962.94
2022-10-31T09:58:22.417Z,100968.97
2022-10-31T10:00:50.369Z,100970.81
2022-10-31T10:03:24.761Z,100963.59
2022-10-31T10:05:56.226Z,100958.22
2022-10-31T10:08:26.140Z,100951.97
2022-10-31T10:10:56.474Z,100947.34
2022-10-31T10:13:39.897Z,100942.09
2022-10-31T10:16:15.112Z,100935.66
2022-10-31T10:18:50.267Z,100942.06
2022-10-31T10:21:27.851Z,100940.03
2022-10-31T10:24:04.271Z,100947.69
2022-10-31T10:26:36.667Z,100929.59
2022-10-31T10:29:17.042Z,100922.06
2022-10-31T10:31:46.885Z,100914.63
2022-10-31T10:34:18.277Z,100903.88
2022-10-31T10:36:51.109Z,100899.09
2022-10-31T10:39:20.915Z,100889.00
2022-10-31T10:42:04.155Z,100888.66
2022-10-31T10:44:49.149Z,100903.41
2022-10-31T10:47:34.528Z,100906.94
2022-10-31T10:50:02.412Z,100898.75
2022-10-31T10:52:43.204Z,100895.00
2022-10-31T10:55:16.301Z,100899.22
2022-10-31T10:57:58.282Z,100874.66
2022-10-31T11:00:27.357Z,100866.16
2022-10-31T11:02:55.302Z,100872.22
2022-10-31T11:05:26.508Z,100861.25
2022-10-31T11:07:55.826Z,100869.19
2022-10-31T11:10:23.730Z,100863.06
2022-10-31T11:13:07.324Z,100860.84
2022-10-31T11:15:38.577Z,100858.91
2022-10-31T11:18:06.813Z,100843.63
2022-10-31T11:20:35.761Z,100854.47
2022-10-31T11:23:18.613Z,100850.09
2022-10-31T11:25:54.122Z,100839.19
2022-10-31T11:28:22.051Z,100835.03
2022-10-31T11:30:50.660Z,100825.56
2022-10-31T11:33:20.662Z,100829.63
2022-10-31T11:35:52.056Z,100833.81
2022-10-31T11:38:41.635Z,100814.84
2022-10-31T11:41:13.464Z,100804.00
2022-10-31T11:43:41.479Z,100801.78
2022-10-31T11:46:12.636Z,100797.03
2022-10-31T11:48:40.487Z,100793.00
2022-10-31T11:51:09.482Z,100788.88
2022-10-31T11:53:38.775Z,100778.38
2022-10-31T11:56:11.367Z,100761.75
2022-10-31T11:58:39.270Z,100766.09
2022-10-31T12:01:07.356Z,100765.28
2022-10-31T12:03:44.882Z,100754.72
2022-10-31T12:06:15.925Z,100755.09
2022-10-31T12:08:45.202Z,100748.69
2022-10-31T12:11:19.426Z,100744.34
2022-10-31T12:13:54.194Z,100756.63
2022-10-31T12:16:24.820Z,100743.25
2022-10-31T12:18:58.777Z,100733.56
2022-10-31T12:21:45.833Z,100723.66
2022-10-31T12:24:22.309Z,100731.78
2022-10-31T12:26:54.073Z,100730.25
2022-10-31T12:31:59.662Z,100708.56
2022-10-31T12:34:51.019Z,100710.31
2022-10-31T12:37:26.954Z,100699.56
2022-10-31T12:40:01.956Z,100699.41
2022-10-31T12:42:38.311Z,100691.38
2022-10-31T12:45:33.455Z,100678.16
2022-10-31T12:48:08.791Z,100674.09
2022-10-31T12:50:46.607Z,100671.47
2022-10-31T12:53:21.686Z,100659.72
2022-10-31T12:55:57.732Z,100647.94
2022-10-31T12:58:27.895Z,100647.50
2022-10-31T13:01:03.117Z,100636.19
2022-10-31T13:03:34.588Z,100634.25
2022-10-31T13:06:05.650Z,100623.53
2022-10-31T13:08:38.566Z,100625.03
2022-10-31T13:13:44.952Z,100606.66
2022-10-31T13:16:15.420Z,100593.16
2022-10-31T13:18:46.703Z,100590.38
2022-10-31T13:21:17.481Z,100588.13
2022-10-31T13:23:50.897Z,100574.84
2022-10-31T13:26:23.935Z,100571.09
2022-10-31T13:28:56.784Z,100563.00
2022-10-31T13:31:24.650Z,100552.06
2022-10-31T13:33:55.408Z,100546.28
2022-10-31T13:36:28.384Z,100539.53
2022-10-31T13:38:57.081Z,100536.53
2022-10-31T13:41:35.173Z,100535.22
2022-10-31T13:44:06.611Z,100518.56
2022-10-31T13:46:38.775Z,100512.56
2022-10-31T13:49:06.708Z,100505.00
2022-10-31T13:51:36.210Z,100504.91
2022-10-31T13:54:08.804Z,100493.78
2022-10-31T13:56:36.843Z,100481.84
2022-10-31T13:59:18.269Z,100477.09
2022-10-31T14:01:50.789Z,100467.25
2022-10-31T14:04:25.175Z,100462.16
2022-10-31T14:06:59.051Z,100452.28
2022-10-31T14:09:30.945Z,100439.59
2022-10-31T14:11:59.444Z,100435.69
2022-10-31T14:14:32.352Z,100441.56
2022-10-31T14:17:00.195Z,100431.72
2022-10-31T14:19:28.114Z,100437.34
2022-10-31T14:21:56.048Z,100432.19
2022-10-31T14:24:35.748Z,100424.50
2022-10-31T14:27:04.745Z,100415.34
2022-10-31T14:29:34.346Z,100413.66
2022-10-31T14:32:13.714Z,100404.09
2022-10-31T14:34:42.911Z,100407.06
2022-10-31T14:37:34.995Z,100387.97
2022-10-31T14:40:09.813Z,100379.56
2022-10-31T14:42:46.571Z,100371.84
2022-10-31T14:45:20.467Z,100360.75
2022-10-31T14:47:59.414Z,100340.06
2022-10-31T14:50:42.995Z,100327.63
2022-10-31T14:53:14.877Z,100339.50
2022-10-31T14:55:45.713Z,100336.06
2022-10-31T14:58:17.822Z,100326.13
2022-10-31T15:00:52.732Z,100311.97
2022-10-31T15:03:24.356Z,100291.53
2022-10-31T15:05:54.150Z,100289.84
2022-10-31T15:08:37.302Z,100279.09
2022-10-31T15:11:11.336Z,100283.75
2022-10-31T15:13:44.171Z,100291.53
2022-10-31T15:16:14.162Z,100279.81
2022-10-31T15:18:54.977Z,100267.78
2022-10-31T15:21:29.257Z,100262.03
2022-10-31T15:23:58.331Z,100240.72
2022-10-31T15:26:28.679Z,100242.63
2022-10-31T15:29:01.337Z,100250.38
2022-10-31T15:31:31.970Z,100236.13
2022-10-31T15:34:02.424Z,100225.22
2022-10-31T15:36:33.290Z,100208.63
2022-10-31T15:39:03.813Z,100218.06
2022-10-31T15:41:34.099Z,100219.47
2022-10-31T15:44:04.347Z,100217.56
2022-10-31T15:46:34.844Z,100210.84
2022-10-31T15:49:02.820Z,100200.34
2022-10-31T15:51:32.006Z,100194.03
2022-10-31T15:54:00.899Z,100191.50
2022-10-31T15:56:30.362Z,100185.38
2022-10-31T15:58:59.718Z,100173.28
2022-10-31T16:01:29.452Z,100160.56
2022-10-31T16:04:04.252Z,100157.16
2022-10-31T16:06:32.470Z,100163.66
2022-10-31T16:09:00.408Z,100148.91
2022-10-31T16:11:33.745Z,100146.94
2022-10-31T16:14:02.791Z,100142.66
2022-10-31T16:16:35.760Z,100135.69
2022-10-31T16:19:06.660Z,100124.38
2022-10-31T16:21:37.025Z,100115.56
2022-10-31T16:24:06.893Z,100113.13
2022-10-31T16:26:35.129Z,100130.38
2022-10-31T16:29:05.396Z,100123.41
2022-10-31T16:31:38.933Z,100129.91
2022-10-31T16:34:17.093Z,100111.47
2022-10-31T16:36:45.228Z,100101.47
2022-10-31T16:39:14.693Z,100090.16
2022-10-31T16:41:43.597Z,100082.59
2022-10-31T16:44:19.313Z,100080.41
2022-10-31T16:46:47.209Z,100078.13
2022-10-31T16:49:17.559Z,100070.44
2022-10-31T16:51:46.595Z,100060.81
2022-10-31T16:54:14.496Z,100060.09
2022-10-31T16:56:42.378Z,100042.75
2022-10-31T16:59:16.423Z,100038.63
2022-10-31T17:01:45.386Z,100045.56
2022-10-31T17:04:16.493Z,100048.50
2022-10-31T17:06:44.437Z,100046.22
2022-10-31T17:09:12.325Z,100040.09
2022-10-31T17:11:45.314Z,100034.41
2022-10-31T17:14:16.210Z,100031.09
2022-10-31T17:16:44.199Z,100012.44
2022-10-31T17:19:12.431Z,100021.59
2022-10-31T17:21:41.695Z,100009.25
2022-10-31T17:24:10.672Z,100011.94
2022-10-31T17:26:38.538Z,100007.47
2022-10-31T17:29:06.499Z,100001.75
2022-10-31T17:31:36.740Z,99999.19
2022-10-31T17:34:05.301Z,99972.44
2022-10-31T17:36:33.583Z,99968.31
2022-10-31T17:39:03.358Z,99947.97
2022-10-31T17:41:31.209Z,99951.00
2022-10-31T17:43:59.185Z,99935.03
2022-10-31T17:46:27.606Z,99937.00
2022-10-31T17:48:55.506Z,99929.19
2022-10-31T17:51:23.397Z,99930.19
2022-10-31T17:53:51.680Z,99921.28
2022-10-31T17:56:21.257Z,99916.03
2022-10-31T17:58:49.203Z,99908.72
2022-10-31T18:01:18.081Z,99910.53
2022-10-31T18:03:46.164Z,99906.84
2022-10-31T18:06:16.745Z,99898.81
2022-10-31T18:08:44.749Z,99893.19
2022-10-31T18:11:14.635Z,99891.38
2022-10-31T18:13:43.919Z,99890.53
2022-10-31T18:16:12.043Z,99891.25
2022-10-31T18:18:39.939Z,99874.03
2022-10-31T18:21:07.823Z,99876.59
2022-10-31T18:23:35.680Z,99876.34
2022-10-31T18:26:03.637Z,99869.72
2022-10-31T18:28:31.537Z,99870.44
2022-10-31T18:31:01.215Z,99869.34
2022-10-31T18:33:29.076Z,99854.97
2022-10-31T18:35:57.026Z,99858.59
2022-10-31T18:38:25.579Z,99835.19
2022-10-31T18:40:53.482Z,99835.06
2022-10-31T18:43:21.337Z,99829.69
2022-10-31T18:45:52.293Z,99829.56
2022-10-31T18:48:24.567Z,99823.19
2022-10-31T18:50:52.515Z,99816.72
2022-10-31T18:53:20.545Z,99819.28
2022-10-31T18:55:50.335Z,99818.16
2022-10-31T18:58:18.387Z,99812.19
2022-10-31T19:00:46.623Z,99805.53
2022-10-31T19:03:14.590Z,99803.09
2022-10-31T19:05:43.871Z,99802.78
2022-10-31T19:08:11.726Z,99796.78
2022-10-31T19:10:40.060Z,99798.03
2022-10-31T19:13:07.934Z,99792.81
2022-10-31T19:15:36.087Z,99774.28
2022-10-31T19:18:04.525Z,99779.25
2022-10-31T19:20:32.470Z,99765.84
2022-10-31T19:23:02.038Z,99764.88
2022-10-31T19:25:30.346Z,99762.91
2022-10-31T19:27:58.912Z,99748.47
2022-10-31T19:30:27.002Z,99741.28
2022-10-31T19:32:55.211Z,99737.75
2022-10-31T19:35:23.058Z,99730.44
2022-10-31T19:37:50.947Z,99722.25
2022-10-31T19:40:20.526Z,99712.22
2022-10-31T19:42:48.366Z,99704.91
2022-10-31T19:45:16.303Z,99704.03
2022-10-31T19:47:44.190Z,99700.38
2022-10-31T19:50:12.070Z,99671.91
2022-10-31T19:52:40.035Z,99684.94
2022-10-31T19:55:08.470Z,99677.03
2022-10-31T20:00:26.236Z,99665.81
2022-10-31T20:02:54.121Z,99657.78
2022-10-31T20:05:22.068Z,99652.41
2022-10-31T20:07:49.909Z,99657.53
2022-10-31T20:10:17.893Z,99659.22
2022-10-31T20:12:47.128Z,99650.75
2022-10-31T20:15:15.074Z,99646.09
2022-10-31T20:17:43.519Z,99638.81
2022-10-31T20:20:11.998Z,99635.25
2022-10-31T20:22:39.920Z,99635.13
2022-10-31T20:25:08.458Z,99630.59
2022-10-31T20:27:36.316Z,99629.03
2022-10-31T20:30:06.407Z,99628.31
2022-10-31T20:32:34.285Z,99621.38
2022-10-31T20:35:02.205Z,99621.63
2022-10-31T20:37:30.068Z,99614.13
2022-10-31T20:39:58.013Z,99611.13
2022-10-31T20:42:25.948Z,99597.16
2022-10-31T20:44:53.810Z,99601.66
2022-10-31T20:47:25.719Z,99603.63
2022-10-31T20:49:53.789Z,99598.97
2022-10-31T20:52:21.699Z,99595.56
2022-10-31T20:54:49.628Z,99594.00
2022-10-31T20:57:17.508Z,99584.25
2022-10-31T20:59:45.445Z,99580.97
2022-10-31T21:02:13.481Z,99575.00
2022-10-31T21:04:42.910Z,99571.72
2022-10-31T21:07:10.836Z,99567.63
2022-10-31T21:09:38.742Z,99567.88
2022-10-31T21:12:06.939Z,99564.63
2022-10-31T21:14:36.550Z,99567.28
2022-10-31T21:17:04.755Z,99572.53
2022-10-31T21:19:33.409Z,99570.56
2022-10-31T21:22:02.908Z,99568.47
2022-10-31T21:24:30.880Z,99566.63
2022-10-31T21:26:58.822Z,99572.59
2022-10-31T21:29:26.708Z,99572.34
2022-10-31T21:31:54.624Z,99575.00
2022-10-31T21:34:22.483Z,99575.13
2022-10-31T21:36:50.467Z,99568.59
2022-10-31T21:39:19.875Z,99569.25
2022-10-31T21:41:47.746Z,99571.00
2022-10-31T21:44:15.663Z,99573.38
2022-10-31T21:46:44.420Z,99579.50
2022-10-31T21:49:12.482Z,99585.78
2022-10-31T21:51:40.934Z,99594.59
2022-10-31T21:54:28.410Z,99603.41
2022-10-31T21:56:57.824Z,99613.91
2022-10-31T21:59:25.743Z,99608.56
2022-10-31T22:01:53.694Z,99605.63
2022-10-31T22:04:21.637Z,99618.16
2022-10-31T22:06:49.504Z,99632.16
2022-10-31T22:09:18.812Z,99632.88
2022-10-31T22:11:46.730Z,99636.03
2022-10-31T22:14:16.414Z,99645.78
2022-10-31T22:19:39.956Z,99656.09
2022-10-31T22:22:07.858Z,99659.63
2022-10-31T22:24:35.772Z,99652.44
2022-10-31T22:27:03.640Z,99662.06
2022-10-31T22:29:35.060Z,99674.38
2022-10-31T22:32:03.054Z,99672.53
2022-10-31T22:34:31.217Z,99672.41
2022-10-31T22:36:59.133Z,99685.81
2022-10-31T22:39:26.979Z,99683.84
2022-10-31T22:41:54.890Z,99687.25
2022-10-31T22:44:22.863Z,99688.81
2022-10-31T22:46:52.101Z,99701.50
2022-10-31T22:49:19.920Z,99699.78
2022-10-31T22:51:47.833Z,99705.16
2022-10-31T22:54:16.959Z,99706.25
2022-10-31T22:56:44.848Z,99710.53
2022-10-31T22:59:13.206Z,99715.56
2022-10-31T23:01:41.138Z,99715.44
2022-10-31T23:06:43.791Z,99719.47
2022-10-31T23:09:12.331Z,99743.47
2022-10-31T23:11:40.369Z,99739.44
2022-10-31T23:14:09.520Z,99740.75
2022-10-31T23:16:37.886Z,99740.75
2022-10-31T23:19:07.991Z,99736.63
2022-10-31T23:21:55.841Z,99742.84
2022-10-31T23:24:28.516Z,99754.09
2022-10-31T23:27:08.570Z,99754.69
2022-10-31T23:29:44.406Z,99772.84
2022-10-31T23:32:17.798Z,99809.59
2022-10-31T23:34:52.331Z,99822.69
2022-10-31T23:37:22.212Z,99833.53
2022-10-31T23:39:50.157Z,99843.47
2022-10-31T23:42:18.741Z,99835.16
2022-10-31T23:44:46.697Z,99867.25
2022-10-31T23:47:14.544Z,99877.91
2022-10-31T23:49:42.416Z,99902.25
2022-10-31T23:52:10.389Z,99903.66
2022-10-31T23:54:39.730Z,99911.84
2022-10-31T23:57:07.568Z,99955.44
2022-10-31T23:59:36.772Z,99986.75
